Pemberton, Minnesota
Current Conditions -  °F | °C
As of 7:35 PM on Thursday 27 Nov 2014 (Local Time) from KACQ Reporting Station
Broken Clouds Broken Clouds  
Wind Chill: -10°   Ceiling: 9000
Heat Index:   Visibility: 10mi
Dew Point: -8°   Wind: 6mph
Humidity: 66%   Direction: 150°SSE
Pressure: 30.34"   Gusts: NA
Location:  44.01°N, 93.78°W
Report Text: KACQ 280135Z AUTO 15005KT 10SM BKN090 BKN120 M17/M22 A3034 RMK AO2
Loading
Personal Weather Stations






























Interactive Weather Map New forecast layout! Learn more

10-Day Weather Forecast

Advertisements
Track Severe Weather on mobile